createdAt,value
2023-05-11T00:02:27.583Z,973.89
2023-05-11T00:07:58.944Z,973.9
2023-05-11T00:13:30.464Z,973.79
2023-05-11T00:19:02.581Z,973.87
2023-05-11T00:24:34.450Z,973.78
2023-05-11T00:30:06.014Z,973.85
2023-05-11T00:35:37.271Z,973.9
2023-05-11T00:41:08.989Z,973.94
2023-05-11T00:46:41.052Z,973.97
2023-05-11T00:52:13.099Z,973.95
2023-05-11T00:57:44.331Z,973.98
2023-05-11T01:03:21.141Z,974.05
2023-05-11T01:08:58.232Z,974.17
2023-05-11T01:14:23.892Z,974.27
2023-05-11T01:19:55.491Z,974.39
2023-05-11T01:25:27.389Z,974.3
2023-05-11T01:30:59.244Z,974.21
2023-05-11T01:36:31.019Z,974.24
2023-05-11T01:42:02.469Z,974.29
2023-05-11T01:47:34.274Z,974.34
2023-05-11T01:53:06.049Z,974.45
2023-05-11T01:58:37.606Z,974.47
2023-05-11T02:04:14.005Z,974.4
2023-05-11T02:09:45.461Z,974.49
2023-05-11T02:15:17.421Z,974.45
2023-05-11T02:20:49.052Z,974.34
2023-05-11T02:26:20.928Z,974.63
2023-05-11T02:31:52.815Z,974.56
2023-05-11T02:37:24.280Z,974.51
2023-05-11T02:42:55.713Z,974.64
2023-05-11T02:48:27.406Z,974.45
2023-05-11T02:53:59.092Z,974.74
2023-05-11T02:59:31.211Z,974.68
2023-05-11T03:05:07.285Z,974.65
2023-05-11T03:10:38.813Z,974.63
2023-05-11T03:16:10.771Z,974.82
2023-05-11T03:21:42.454Z,974.76
2023-05-11T03:27:14.114Z,974.61
2023-05-11T03:32:45.800Z,974.44
2023-05-11T03:38:17.670Z,974.59
2023-05-11T03:43:52.404Z,974.18
2023-05-11T03:49:21.022Z,974.08
2023-05-11T03:54:52.565Z,974.0
2023-05-11T04:00:24.415Z,974.52
2023-05-11T04:06:00.784Z,973.73
2023-05-11T04:11:32.237Z,974.46
2023-05-11T04:17:03.883Z,973.99
2023-05-11T04:22:35.716Z,974.18
2023-05-11T04:28:07.482Z,974.43
2023-05-11T04:33:39.397Z,974.5
2023-05-11T04:39:10.703Z,973.83
2023-05-11T04:44:42.865Z,974.4
2023-05-11T04:50:14.184Z,974.48
2023-05-11T04:55:45.949Z,974.47
2023-05-11T05:01:17.894Z,974.69
2023-05-11T05:06:54.040Z,974.18
2023-05-11T05:12:25.299Z,974.45
2023-05-11T05:17:57.979Z,974.48
2023-05-11T05:23:29.232Z,974.68
2023-05-11T05:29:00.911Z,974.56
2023-05-11T05:34:32.382Z,975.03
2023-05-11T05:40:04.305Z,974.44
2023-05-11T05:45:35.849Z,974.91
2023-05-11T05:51:07.677Z,975.38
2023-05-11T05:56:40.129Z,975.78
2023-05-11T06:02:11.239Z,975.76
2023-05-11T06:08:11.253Z,975.58
2023-05-11T06:13:18.849Z,975.66
2023-05-11T06:18:50.791Z,975.48
2023-05-11T06:24:22.336Z,975.72
2023-05-11T06:29:54.101Z,975.83
2023-05-11T06:35:26.025Z,975.96
2023-05-11T06:40:57.663Z,975.64
2023-05-11T06:46:30.022Z,976.0
2023-05-11T06:52:01.766Z,976.11
2023-05-11T06:57:32.928Z,976.19
2023-05-11T07:03:04.761Z,976.34
2023-05-11T07:08:40.476Z,976.57
2023-05-11T07:14:12.398Z,976.59
2023-05-11T07:19:44.339Z,976.46
2023-05-11T07:25:15.919Z,976.67
2023-05-11T07:30:47.932Z,976.31
2023-05-11T07:36:19.064Z,976.63
2023-05-11T07:41:50.747Z,976.59
2023-05-11T07:47:22.851Z,976.42
2023-05-11T07:52:54.489Z,976.66
2023-05-11T07:58:26.250Z,977.36
2023-05-11T08:03:57.735Z,976.53
2023-05-11T08:09:33.960Z,976.9
2023-05-11T08:15:05.767Z,976.99
2023-05-11T08:20:37.680Z,977.18
2023-05-11T08:26:09.214Z,976.85
2023-05-11T08:31:41.355Z,976.59
2023-05-11T08:37:12.500Z,977.14
2023-05-11T08:42:44.078Z,976.98
2023-05-11T08:48:15.799Z,977.3
2023-05-11T08:53:47.592Z,977.48
2023-05-11T08:59:19.971Z,977.2
2023-05-11T09:04:51.178Z,977.99
2023-05-11T09:10:27.244Z,977.67
2023-05-11T09:15:58.964Z,977.06
2023-05-11T09:21:30.935Z,977.18
2023-05-11T09:27:02.318Z,976.96
2023-05-11T09:32:34.156Z,977.3
2023-05-11T09:38:06.139Z,976.83
2023-05-11T09:43:37.558Z,977.43
2023-05-11T09:49:09.604Z,977.76
2023-05-11T09:54:41.415Z,977.81
2023-05-11T10:00:12.723Z,977.13
2023-05-11T10:05:44.668Z,977.19
2023-05-11T10:11:20.644Z,977.76
2023-05-11T10:16:52.267Z,977.09
2023-05-11T10:22:23.975Z,977.82
2023-05-11T10:27:55.717Z,978.07
2023-05-11T10:33:27.507Z,977.95
2023-05-11T10:38:59.189Z,977.33
2023-05-11T10:44:31.200Z,977.58
2023-05-11T10:50:02.927Z,977.47
2023-05-11T10:55:34.562Z,977.27
2023-05-11T11:01:06.702Z,977.14
2023-05-11T11:06:37.938Z,977.67
2023-05-11T11:12:14.021Z,977.54
2023-05-11T11:17:45.862Z,977.7
2023-05-11T11:23:17.328Z,977.65
2023-05-11T11:28:50.221Z,977.7
2023-05-11T11:34:20.918Z,978.25
2023-05-11T11:39:52.761Z,978.27
2023-05-11T11:45:24.620Z,978.11
2023-05-11T11:50:56.120Z,978.07
2023-05-11T11:56:27.945Z,978.41
2023-05-11T12:02:01.383Z,978.12
2023-05-11T12:07:32.240Z,977.99
2023-05-11T12:13:10.405Z,977.84
2023-05-11T12:18:42.190Z,977.88
2023-05-11T12:24:14.040Z,978.02
2023-05-11T12:29:45.804Z,977.84
2023-05-11T12:35:17.756Z,978.15
2023-05-11T12:40:49.152Z,978.49
2023-05-11T12:46:20.739Z,978.41
2023-05-11T12:51:52.323Z,978.53
2023-05-11T12:57:24.098Z,978.2
2023-05-11T13:02:56.206Z,977.98
2023-05-11T13:08:27.642Z,978.31
2023-05-11T13:14:03.682Z,977.94
2023-05-11T13:19:35.491Z,978.24
2023-05-11T13:25:07.226Z,977.89
2023-05-11T13:30:40.185Z,977.17
2023-05-11T13:36:11.453Z,977.68
2023-05-11T13:41:42.739Z,977.72
2023-05-11T13:47:14.808Z,977.83
2023-05-11T13:52:46.302Z,977.88
2023-05-11T13:58:18.312Z,977.45
2023-05-11T14:03:50.177Z,977.89
2023-05-11T14:09:21.495Z,977.92
2023-05-11T14:14:57.553Z,977.39
2023-05-11T14:20:30.259Z,977.83
2023-05-11T14:26:01.138Z,977.46
2023-05-11T14:31:33.675Z,977.1
2023-05-11T14:37:04.451Z,977.55
2023-05-11T14:42:36.616Z,977.01
2023-05-11T14:48:08.143Z,977.57
2023-05-11T14:53:39.786Z,976.93
2023-05-11T14:59:12.027Z,976.47
2023-05-11T15:04:43.687Z,976.49
2023-05-11T15:10:15.822Z,976.52
2023-05-11T15:15:52.893Z,976.76
2023-05-11T15:21:23.617Z,977.11
2023-05-11T15:26:55.368Z,976.15
2023-05-11T15:32:28.818Z,976.65
2023-05-11T15:37:58.960Z,976.72
2023-05-11T15:43:30.162Z,976.55
2023-05-11T15:49:02.235Z,975.97
2023-05-11T15:54:36.831Z,976.56
2023-05-11T16:00:05.462Z,976.21
2023-05-11T16:05:37.211Z,976.23
2023-05-11T16:11:09.282Z,976.35
2023-05-11T16:16:47.516Z,976.16
2023-05-11T16:22:19.058Z,976.35
2023-05-11T16:27:50.682Z,976.42
2023-05-11T16:33:22.576Z,976.16
2023-05-11T16:38:54.110Z,976.25
2023-05-11T16:44:26.153Z,976.44
2023-05-11T16:49:57.732Z,976.14
2023-05-11T16:55:29.377Z,975.65
2023-05-11T17:01:01.185Z,975.44
2023-05-11T17:06:32.740Z,975.6
2023-05-11T17:12:04.293Z,976.04
2023-05-11T17:17:40.616Z,975.61
2023-05-11T17:23:12.443Z,975.5
2023-05-11T17:28:44.040Z,974.99
2023-05-11T17:34:16.485Z,974.87
2023-05-11T17:39:48.771Z,974.54
2023-05-11T17:45:20.013Z,974.41
2023-05-11T17:50:51.000Z,974.53
2023-05-11T17:56:23.092Z,974.28
2023-05-11T18:01:54.367Z,974.89
2023-05-11T18:07:25.907Z,975.03
2023-05-11T18:12:58.256Z,975.24
2023-05-11T18:18:34.030Z,975.01
2023-05-11T18:24:05.575Z,975.13
2023-05-11T18:29:38.489Z,975.13
2023-05-11T18:35:09.307Z,975.05
2023-05-11T18:40:41.262Z,975.04
2023-05-11T18:46:12.410Z,975.01
2023-05-11T18:51:44.398Z,974.85
2023-05-11T18:57:16.071Z,974.71
2023-05-11T19:02:48.432Z,974.49
2023-05-11T19:08:19.537Z,974.26
2023-05-11T19:13:52.029Z,974.1
2023-05-11T19:19:27.691Z,974.4
2023-05-11T19:24:59.631Z,974.47
2023-05-11T19:30:30.810Z,974.49
2023-05-11T19:36:02.679Z,974.66
2023-05-11T19:41:34.430Z,974.78
2023-05-11T19:47:05.877Z,974.89
2023-05-11T19:52:37.605Z,974.76
2023-05-11T19:58:09.279Z,974.79
2023-05-11T20:03:41.632Z,974.66
2023-05-11T20:09:12.799Z,974.59
2023-05-11T20:14:44.675Z,974.51
2023-05-11T20:20:22.544Z,974.35
2023-05-11T20:25:52.190Z,974.05
2023-05-11T20:31:23.985Z,974.45
2023-05-11T20:36:55.656Z,974.14
2023-05-11T20:42:27.345Z,974.16
2023-05-11T20:47:59.608Z,974.17
2023-05-11T20:53:31.177Z,973.91
2023-05-11T20:59:02.616Z,974.08
2023-05-11T21:04:34.928Z,974.14
2023-05-11T21:10:06.218Z,974.19
2023-05-11T21:15:37.861Z,974.24
2023-05-11T21:21:13.831Z,974.26
2023-05-11T21:26:48.910Z,974.25
2023-05-11T21:32:17.772Z,974.22
2023-05-11T21:37:49.165Z,974.43
2023-05-11T21:43:21.190Z,974.4
2023-05-11T21:48:52.830Z,974.55
2023-05-11T21:54:24.375Z,974.78
2023-05-11T21:59:56.257Z,974.61
2023-05-11T22:05:28.017Z,974.86
2023-05-11T22:10:59.842Z,974.8
2023-05-11T22:16:31.384Z,975.01
2023-05-11T22:22:07.617Z,974.93
2023-05-11T22:27:39.491Z,974.91
2023-05-11T22:33:11.074Z,975.11
2023-05-11T22:38:42.467Z,975.12
2023-05-11T22:44:14.495Z,975.2
2023-05-11T22:49:46.115Z,975.27
2023-05-11T22:55:18.621Z,975.24
2023-05-11T23:00:49.725Z,975.31
2023-05-11T23:06:21.387Z,975.57
2023-05-11T23:11:52.675Z,975.35
2023-05-11T23:17:24.885Z,975.46
2023-05-11T23:23:00.936Z,975.36
2023-05-11T23:28:32.421Z,975.51
2023-05-11T23:34:04.064Z,975.42
2023-05-11T23:39:35.824Z,975.49
2023-05-11T23:45:07.701Z,975.47
2023-05-11T23:50:39.210Z,975.51
2023-05-11T23:56:10.889Z,975.47
